Time;durP1;ratioP1;P1;durP2;ratioP2;P2;SDS_P1;SDS_P2;PMS_P1;PMS_P2;Temp;Humidity;BMP_temperature;BMP_pressure;BME280_temperature;BME280_humidity;BME280_pressure;Samples;Min_cycle;Max_cycle;Signal;HPM_P1;HPM_P2
2022/02/04 00:08:23;;;;;;;15.80;9.13;;;;;;;1.28;53.35;95422.94;4970800;28;20097;-77
2022/02/04 00:24:18;;;;;;;18.13;9.40;;;;;;;1.20;52.94;95442.47;4970987;28;20038;-78
2022/02/04 00:26:50;;;;;;;12.52;8.00;;;;;;;1.24;53.37;95452.41;4995513;23;20101;-78
2022/02/04 00:29:35;;;;;;;17.48;8.45;;;;;;;1.29;52.77;95445.03;4978946;28;20114;-78
2022/02/04 00:32:05;;;;;;;17.58;9.68;;;;;;;1.33;53.19;95448.91;4978130;28;20490;-78
2022/02/04 00:34:39;;;;;;;13.13;8.25;;;;;;;1.36;52.67;95446.03;4948641;28;20467;-78
2022/02/04 00:39:38;;;;;;;19.73;11.05;;;;;;;1.35;52.81;95432.41;4988816;28;20058;-78
2022/02/04 00:42:08;;;;;;;19.38;10.13;;;;;;;1.36;52.80;95438.34;4978476;28;20490;-79
2022/02/04 00:44:36;;;;;;;18.58;10.20;;;;;;;1.30;52.37;95444.06;4957279;28;20538;-78
2022/02/04 00:47:07;;;;;;;18.45;8.75;;;;;;;1.31;53.05;95443.13;4978217;28;20091;-78
2022/02/04 00:55:44;;;;;;;18.77;9.55;;;;;;;1.20;52.65;95439.91;4951839;28;20498;-79
2022/02/04 01:27:31;;;;;;;40.17;18.08;;;;;;;0.84;54.77;95415.53;4960520;28;20038;-78
2022/02/04 01:32:22;;;;;;;37.67;16.08;;;;;;;0.75;55.28;95417.25;4964565;23;20121;-78
2022/02/04 01:34:47;;;;;;;42.58;20.58;;;;;;;0.72;55.08;95414.22;4981658;28;20050;-78
2022/02/04 01:37:12;;;;;;;56.95;22.13;;;;;;;0.68;54.99;95418.06;4982441;28;20474;-78
2022/02/04 01:39:38;;;;;;;59.80;27.30;;;;;;;0.57;55.02;95409.69;4982991;28;20534;-78
2022/02/04 01:42:03;;;;;;;95.88;37.85;;;;;;;0.54;55.06;95410.00;4984914;28;20088;-78
2022/02/04 01:44:29;;;;;;;152.13;57.88;;;;;;;0.49;55.58;95416.56;4986287;28;20519;-78
2022/02/04 01:46:54;;;;;;;121.68;51.20;;;;;;;0.44;55.36;95419.56;4984417;28;20041;-78
2022/02/04 01:49:22;;;;;;;121.28;47.53;;;;;;;0.36;55.55;95417.00;4977381;28;20041;-77
2022/02/04 01:51:47;;;;;;;70.57;27.60;;;;;;;0.37;55.85;95413.47;5014819;28;20176;-78
2022/02/04 01:54:13;;;;;;;58.10;26.13;;;;;;;0.38;54.93;95412.50;4996507;28;20467;-78
2022/02/04 01:56:39;;;;;;;54.50;24.50;;;;;;;0.34;55.22;95416.34;5000197;28;20021;-78
2022/02/04 01:59:04;;;;;;;78.35;30.65;;;;;;;0.36;55.07;95417.00;4984555;28;20045;-78
2022/02/04 02:01:29;;;;;;;51.15;22.52;;;;;;;0.35;55.20;95412.84;4968161;28;20026;-78
2022/02/04 02:03:56;;;;;;;55.80;23.35;;;;;;;0.33;55.10;95419.84;4969156;28;20034;-78
2022/02/04 02:06:53;;;;;;;47.58;20.35;;;;;;;0.31;54.95;95414.06;4969724;28;20038;-78
2022/02/04 02:09:20;;;;;;;47.72;22.45;;;;;;;0.23;55.35;95412.28;4987550;28;20108;-78
2022/02/04 02:11:51;;;;;;;38.53;17.67;;;;;;;0.27;55.52;95405.09;4951033;28;20053;-78
2022/02/04 02:14:19;;;;;;;49.25;20.92;;;;;;;0.18;55.68;95404.28;4968634;28;20088;-78
2022/02/04 02:43:23;;;;;;;18.20;10.17;;;;;;;-0.04;55.47;95399.69;4993875;28;20053;-78
2022/02/04 02:51:50;;;;;;;19.45;8.02;;;;;;;-0.14;55.07;95399.00;4999315;28;20045;-77
2022/02/04 02:59:03;;;;;;;10.30;7.13;;;;;;;-0.34;55.54;95396.63;4999111;28;20497;-77
2022/02/04 03:01:29;;;;;;;9.82;6.97;;;;;;;-0.31;55.42;95403.22;4955183;28;20077;-77
2022/02/04 03:03:57;;;;;;;12.25;6.63;;;;;;;-0.36;56.09;95396.00;4972939;23;20046;-77
2022/02/04 03:06:23;;;;;;;6.90;6.05;;;;;;;-0.43;55.30;95405.22;4982605;28;20218;-77
2022/02/04 03:08:48;;;;;;;10.38;7.60;;;;;;;-0.46;55.53;95400.41;4985143;28;20031;-77
2022/02/04 03:11:14;;;;;;;12.27;7.35;;;;;;;-0.50;55.96;95398.28;4994902;28;20053;-77
2022/02/04 03:13:42;;;;;;;13.90;9.52;;;;;;;-0.51;56.10;95396.69;4988353;28;20585;-77
2022/02/04 03:16:10;;;;;;;14.23;9.20;;;;;;;-0.48;55.83;95397.22;4982092;28;20041;-76
2022/02/04 03:18:39;;;;;;;14.23;8.93;;;;;;;-0.57;55.83;95394.72;4948650;28;20049;-77
2022/02/04 03:23:34;;;;;;;11.90;7.68;;;;;;;-0.58;56.09;95393.13;5008105;23;20054;-77
2022/02/04 03:26:07;;;;;;;11.38;7.82;;;;;;;-0.53;56.05;95401.13;4975388;28;20077;-77
2022/02/04 03:28:34;;;;;;;11.30;8.63;;;;;;;-0.63;56.21;95391.84;4995967;28;20038;-77
2022/02/04 03:30:59;;;;;;;18.23;8.82;;;;;;;-0.64;56.37;95397.09;4991551;28;20030;-77
2022/02/04 03:33:28;;;;;;;13.65;8.35;;;;;;;-0.59;56.52;95386.41;4974875;28;20040;-77
2022/02/04 03:35:53;;;;;;;11.38;7.60;;;;;;;-0.56;56.09;95391.22;4958775;28;20100;-78
2022/02/04 03:38:19;;;;;;;10.07;7.38;;;;;;;-0.56;56.38;95384.38;4966408;28;20490;-77
2022/02/04 03:40:44;;;;;;;16.65;7.60;;;;;;;-0.54;56.30;95381.66;4973612;28;20035;-77
2022/02/04 03:43:10;;;;;;;8.48;7.30;;;;;;;-0.63;56.58;95384.16;4973698;28;20033;-77
2022/02/04 03:45:35;;;;;;;11.82;8.45;;;;;;;-0.69;56.50;95379.63;4990924;28;20030;-77
2022/02/04 03:48:01;;;;;;;15.00;9.45;;;;;;;-0.70;56.53;95379.78;4991145;28;20039;-77
2022/02/04 03:50:27;;;;;;;13.60;9.20;;;;;;;-0.67;56.59;95380.28;4972781;28;20042;-77
2022/02/04 03:52:52;;;;;;;9.88;8.82;;;;;;;-0.66;56.44;95368.31;4965045;23;20115;-77
2022/02/04 03:55:18;;;;;;;17.80;7.93;;;;;;;-0.73;56.24;95368.13;4975592;28;20093;-77
2022/02/04 03:57:43;;;;;;;16.58;9.27;;;;;;;-0.77;56.72;95369.38;4978039;28;20038;-77
2022/02/04 04:00:11;;;;;;;14.88;9.65;;;;;;;-0.94;57.11;95367.66;4946374;28;20175;-77
2022/02/04 04:02:36;;;;;;;13.52;9.25;;;;;;;-0.85;57.15;95364.19;4929123;28;20037;-77
2022/02/04 04:05:02;;;;;;;11.20;8.48;;;;;;;-0.84;57.12;95365.78;4928604;28;20032;-77
2022/02/04 04:07:29;;;;;;;12.68;7.97;;;;;;;-0.92;57.46;95365.75;4956945;28;20628;-77
2022/02/04 04:10:01;;;;;;;11.93;8.60;;;;;;;-0.96;57.08;95367.00;4971580;28;20042;-79
2022/02/04 04:12:27;;;;;;;20.85;8.55;;;;;;;-0.99;57.27;95362.97;4974684;28;20034;-76
2022/02/04 04:14:55;;;;;;;24.15;8.85;;;;;;;-0.91;56.71;95359.69;4959663;28;20068;-76
2022/02/04 04:17:20;;;;;;;23.58;14.27;;;;;;;-0.90;56.96;95353.63;4959767;28;20542;-77
2022/02/04 04:19:52;;;;;;;29.77;13.27;;;;;;;-0.83;57.63;95357.19;4943655;28;20030;-76
2022/02/04 04:22:18;;;;;;;20.00;13.30;;;;;;;-0.70;56.76;95362.72;4976749;28;20043;-76
2022/02/04 04:24:43;;;;;;;33.03;13.30;;;;;;;-0.66;57.11;95364.00;4980353;28;20505;-76
2022/02/04 04:27:08;;;;;;;30.38;13.13;;;;;;;-0.69;56.96;95363.50;4979862;28;20031;-76
2022/02/04 04:29:34;;;;;;;27.38;12.93;;;;;;;-0.82;56.79;95368.19;4980563;28;20054;-76
2022/02/04 04:31:59;;;;;;;25.30;15.98;;;;;;;-0.82;56.52;95363.09;4959007;28;20030;-76
2022/02/04 04:34:25;;;;;;;44.72;21.13;;;;;;;-0.89;56.87;95362.91;4957128;28;20031;-76
2022/02/04 04:36:50;;;;;;;27.38;16.52;;;;;;;-0.85;56.94;95353.97;4966678;28;20057;-76
2022/02/04 04:39:23;;;;;;;28.40;15.60;;;;;;;-0.79;57.25;95366.19;4980478;28;20034;-77
2022/02/04 04:42:08;;;;;;;25.38;15.13;;;;;;;-0.71;57.38;95371.31;4977868;28;20117;-76
2022/02/04 05:30:58;;;;;;;62.53;26.63;;;;;;;-0.24;55.92;95399.09;4962947;28;20038;-79
2022/02/04 05:33:23;;;;;;;67.93;36.83;;;;;;;-0.34;56.00;95395.84;4946348;28;20038;-78
2022/02/04 05:35:49;;;;;;;67.97;32.80;;;;;;;-0.22;56.33;95397.19;4949024;28;20628;-78
2022/02/04 05:38:16;;;;;;;45.10;24.45;;;;;;;-0.13;55.38;95396.31;4948816;28;20537;-77
2022/02/04 05:40:44;;;;;;;31.02;18.27;;;;;;;-0.11;55.58;95389.28;4987672;23;20043;-77
2022/02/04 05:43:17;;;;;;;35.72;17.85;;;;;;;-0.05;55.01;95393.78;4999562;28;20034;-78
2022/02/04 05:45:51;;;;;;;40.85;19.65;;;;;;;-0.07;55.54;95395.69;4995106;28;20031;-78
2022/02/04 05:48:17;;;;;;;33.63;18.80;;;;;;;-0.06;55.47;95391.38;4983589;28;20034;-78
2022/02/04 05:53:37;;;;;;;33.45;16.27;;;;;;;-0.08;55.75;95393.28;4986598;28;20142;-78
2022/02/04 05:56:13;;;;;;;29.38;16.23;;;;;;;-0.03;55.44;95391.88;4974162;28;20034;-77
2022/02/04 05:58:59;;;;;;;27.77;15.13;;;;;;;-0.02;55.60;95388.34;4987202;28;20042;-77
2022/02/04 06:01:34;;;;;;;18.33;13.48;;;;;;;0.07;55.50;95389.22;4986650;28;20182;-77
2022/02/04 06:24:37;;;;;;;135.48;56.05;;;;;;;0.38;55.14;95415.06;4950511;28;20427;-77
2022/02/04 06:27:03;;;;;;;141.77;60.88;;;;;;;0.49;54.69;95417.38;4957286;28;20038;-77
2022/02/04 06:29:28;;;;;;;182.35;81.88;;;;;;;0.49;54.46;95435.28;4965894;28;20512;-77
2022/02/04 06:31:53;;;;;;;216.13;95.80;;;;;;;0.42;55.20;95429.16;4985763;28;20038;-77
2022/02/04 06:34:19;;;;;;;244.40;110.60;;;;;;;0.46;54.88;95427.88;4968798;28;20536;-77
2022/02/04 06:36:44;;;;;;;227.48;111.07;;;;;;;0.49;55.85;95427.59;4983097;28;20042;-77
2022/02/04 06:39:10;;;;;;;403.77;192.13;;;;;;;0.58;55.14;95436.09;4965912;28;20026;-77
2022/02/04 06:41:35;;;;;;;393.45;203.75;;;;;;;0.60;54.70;95429.06;4966136;28;20041;-78
2022/02/04 06:44:02;;;;;;;398.60;219.32;;;;;;;0.69;54.69;95432.44;4985248;28;20037;-77
2022/02/04 06:46:28;;;;;;;400.45;214.65;;;;;;;0.86;54.76;95439.22;4983586;28;20520;-77
2022/02/04 06:48:54;;;;;;;374.17;203.70;;;;;;;0.94;54.27;95431.53;4983115;28;20038;-77
2022/02/04 06:51:19;;;;;;;368.80;202.27;;;;;;;0.91;54.24;95426.75;4949366;28;20067;-78
2022/02/04 06:53:45;;;;;;;381.17;210.25;;;;;;;0.96;54.28;95429.63;4965912;28;20093;-77
2022/02/04 06:56:10;;;;;;;400.13;219.50;;;;;;;1.10;53.15;95421.31;4963888;28;20030;-77
2022/02/04 06:58:36;;;;;;;241.57;123.72;;;;;;;1.25;52.99;95423.25;4982548;28;20034;-77
2022/02/04 07:01:01;;;;;;;394.83;219.30;;;;;;;1.26;53.45;95424.88;4983949;28;20026;-78
2022/02/04 07:03:27;;;;;;;336.10;183.02;;;;;;;1.30;53.05;95423.56;4966611;28;20787;-77
2022/02/04 07:05:56;;;;;;;280.88;152.00;;;;;;;1.37;53.46;95432.25;4958338;28;20034;-78
2022/02/04 07:08:29;;;;;;;249.20;136.13;;;;;;;1.43;53.45;95439.28;4980131;28;20030;-77
2022/02/04 07:11:13;;;;;;;305.58;173.05;;;;;;;1.53;52.71;95434.81;4981728;28;20061;-77
2022/02/04 07:21:55;;;;;;;148.05;72.30;;;;;;;2.06;51.71;95423.19;4967900;28;20101;-77
2022/02/04 07:24:20;;;;;;;120.28;62.42;;;;;;;2.33;51.17;95425.38;4964251;28;20038;-78
2022/02/04 07:26:49;;;;;;;124.40;59.83;;;;;;;2.63;50.94;95431.53;4965008;28;20039;-78
2022/02/04 07:29:14;;;;;;;116.38;60.45;;;;;;;2.95;49.84;95430.56;4968099;28;20034;-77
2022/02/04 07:31:41;;;;;;;132.13;56.10;;;;;;;3.22;49.54;95418.16;4953312;28;20110;-77
2022/02/04 07:34:14;;;;;;;125.45;60.10;;;;;;;3.58;48.47;95426.91;4986415;28;20061;-77
2022/02/04 07:41:56;;;;;;;56.80;26.75;;;;;;;4.55;46.27;95420.94;4954150;28;20031;-77
2022/02/04 07:44:21;;;;;;;51.40;21.38;;;;;;;4.77;45.01;95423.41;4983867;28;20081;-78
2022/02/04 07:46:46;;;;;;;55.45;23.73;;;;;;;5.04;44.19;95424.53;4982327;28;20038;-77
2022/02/04 07:49:12;;;;;;;41.20;22.02;;;;;;;5.31;44.64;95428.16;4981510;28;20053;-78
2022/02/04 07:51:41;;;;;;;45.60;21.08;;;;;;;5.61;42.98;95428.03;4963937;28;20037;-77
2022/02/04 07:54:07;;;;;;;40.83;20.02;;;;;;;5.89;42.43;95428.84;4947794;28;20042;-80
2022/02/04 07:56:33;;;;;;;47.13;20.00;;;;;;;5.88;41.85;95422.09;4963540;28;20035;-78
2022/02/04 07:59:00;;;;;;;39.33;18.67;;;;;;;5.92;40.88;95423.34;4980625;28;20045;-78
2022/02/04 08:01:29;;;;;;;36.55;14.15;;;;;;;6.07;40.63;95419.88;4937795;28;20026;-77
2022/02/04 08:04:04;;;;;;;34.55;14.55;;;;;;;6.10;40.48;95425.44;4981236;28;20058;-78
2022/02/04 08:06:36;;;;;;;45.10;14.48;;;;;;;6.26;39.54;95426.94;4963508;28;20038;-78
2022/02/04 08:09:15;;;;;;;39.83;15.20;;;;;;;6.37;39.28;95417.88;4949089;28;20125;-78
2022/02/04 08:17:40;;;;;;;37.38;17.05;;;;;;;6.43;40.97;95422.28;4948366;28;20070;-77
2022/02/04 08:25:13;;;;;;;46.60;18.00;;;;;;;6.72;39.97;95413.47;4971741;28;20041;-78
2022/02/04 08:56:14;;;;;;;51.78;24.63;;;;;;;6.51;40.19;95406.63;4957597;28;20038;-77
2022/02/04 08:58:47;;;;;;;56.45;23.42;;;;;;;6.60;39.68;95410.63;4971866;28;20049;-78
2022/02/04 09:01:28;;;;;;;54.13;23.88;;;;;;;6.60;38.98;95411.44;4967260;28;20518;-78
2022/02/04 09:04:05;;;;;;;46.58;24.63;;;;;;;6.42;39.80;95402.59;4966036;23;20039;-80
2022/02/04 09:06:38;;;;;;;50.22;24.20;;;;;;;6.28;39.65;95409.47;4986507;28;20494;-76
2022/02/04 09:09:05;;;;;;;53.20;24.77;;;;;;;6.18;39.97;95411.59;4969424;28;20407;-79
2022/02/04 09:17:21;;;;;;;61.95;24.80;;;;;;;5.80;41.69;95398.19;4971945;28;20069;-80
2022/02/04 09:24:49;;;;;;;53.08;23.67;;;;;;;5.81;41.39;95384.31;4967464;28;20045;-80
2022/02/04 09:27:15;;;;;;;59.33;25.15;;;;;;;5.81;40.52;95385.09;4965710;28;20035;-80
2022/02/04 09:29:40;;;;;;;41.53;23.38;;;;;;;5.67;41.19;95375.66;4983111;28;20031;-80
2022/02/04 09:32:06;;;;;;;51.17;24.08;;;;;;;5.78;41.25;95380.31;4949733;28;20039;-80
2022/02/04 09:37:11;;;;;;;65.00;25.58;;;;;;;5.95;41.02;95371.34;5169204;23;20093;-79
2022/02/04 09:39:36;;;;;;;46.67;24.17;;;;;;;5.95;41.19;95366.19;4994327;28;20035;-77
2022/02/04 09:42:02;;;;;;;55.13;26.00;;;;;;;5.98;40.67;95363.22;4965878;28;20062;-79
2022/02/04 09:44:27;;;;;;;60.50;25.63;;;;;;;5.99;40.85;95371.75;4999380;28;20026;-79
2022/02/04 09:46:55;;;;;;;47.13;23.63;;;;;;;5.97;40.44;95364.19;4961621;28;20038;-80
2022/02/04 09:49:27;;;;;;;55.45;23.25;;;;;;;5.91;40.67;95375.28;4982560;28;20085;-80
2022/02/04 10:12:03;;;;;;;43.88;21.48;;;;;;;5.90;41.92;95358.22;4986426;28;20073;-80
2022/02/04 10:14:36;;;;;;;66.25;21.73;;;;;;;6.00;40.83;95353.50;4984216;28;20498;-80
2022/02/04 10:17:11;;;;;;;55.83;20.85;;;;;;;6.00;40.25;95350.13;4986110;28;20089;-80
2022/02/04 10:22:07;;;;;;;45.58;21.75;;;;;;;6.25;41.67;95324.63;4967324;28;20052;-80
2022/02/04 10:24:33;;;;;;;43.78;21.75;;;;;;;6.26;40.40;95337.34;4991520;28;20035;-80
2022/02/04 10:27:16;;;;;;;46.05;22.38;;;;;;;6.27;40.71;95328.63;5036834;23;20099;-80
2022/02/04 10:29:43;;;;;;;46.58;22.30;;;;;;;6.17;40.83;95322.19;4968062;28;20050;-80
2022/02/04 10:32:09;;;;;;;51.83;22.70;;;;;;;6.15;40.53;95319.81;4933029;28;20035;-80
2022/02/04 10:34:37;;;;;;;40.05;22.33;;;;;;;6.15;41.28;95324.19;4934640;28;20031;-80
2022/02/04 10:37:28;;;;;;;60.22;22.58;;;;;;;6.21;41.80;95328.59;4967096;28;20031;-80
2022/02/04 10:39:59;;;;;;;40.83;21.00;;;;;;;6.23;40.44;95316.28;4938595;28;20057;-79
2022/02/04 10:45:21;;;;;;;54.38;22.83;;;;;;;5.99;41.07;95304.63;4950476;28;20041;-80
2022/02/04 10:50:41;;;;;;;43.30;21.58;;;;;;;6.06;41.14;95295.16;4933655;28;20054;-80
2022/02/04 10:53:45;;;;;;;45.63;21.00;;;;;;;6.17;40.99;95292.00;4951110;28;20027;-80
2022/02/04 11:04:30;;;;;;;41.05;20.35;;;;;;;6.81;39.05;95283.06;4961078;28;20111;-79
2022/02/04 11:36:50;;;;;;;36.08;20.23;;;;;;;8.04;36.60;95253.09;4926839;28;20081;-81
2022/02/04 11:57:03;;;;;;;47.58;20.13;;;;;;;7.35;37.46;95240.72;4973901;28;20050;-80
2022/02/04 11:59:43;;;;;;;49.30;21.05;;;;;;;7.00;38.61;95240.94;4975022;28;20046;-79
2022/02/04 12:02:28;;;;;;;32.38;18.70;;;;;;;7.16;38.92;95240.53;4974774;28;20058;-81
2022/02/04 12:05:11;;;;;;;37.83;21.55;;;;;;;7.27;38.11;95235.75;4974578;28;20046;-81
2022/02/04 12:07:39;;;;;;;48.40;22.58;;;;;;;6.80;39.04;95225.41;4972526;28;20089;-81
2022/02/04 12:10:20;;;;;;;43.35;23.17;;;;;;;6.97;38.62;95222.41;4957974;28;20049;-81
2022/02/04 12:13:07;;;;;;;46.83;23.00;;;;;;;6.95;38.73;95214.88;4973978;28;20054;-80
2022/02/04 12:15:36;;;;;;;48.92;22.92;;;;;;;7.12;38.73;95218.63;4973509;28;20039;-81
2022/02/04 12:18:08;;;;;;;51.65;22.67;;;;;;;7.28;38.39;95221.81;4973371;28;20438;-80
2022/02/04 12:20:56;;;;;;;46.53;22.25;;;;;;;7.27;38.12;95225.41;4975605;28;20043;-81
2022/02/04 12:26:04;;;;;;;48.17;22.85;;;;;;;7.37;38.05;95210.28;4975353;28;20058;-80
2022/02/04 12:28:58;;;;;;;49.03;23.67;;;;;;;7.37;38.12;95194.75;4973187;28;20487;-80
2022/02/04 12:31:30;;;;;;;54.95;22.40;;;;;;;7.45;37.78;95202.28;4971034;28;20126;-80
2022/02/04 12:33:59;;;;;;;50.33;23.90;;;;;;;7.50;38.16;95199.91;4969597;28;20129;-81
2022/02/04 12:36:38;;;;;;;45.30;22.75;;;;;;;7.57;37.51;95192.91;4972882;28;20039;-81
2022/02/04 12:39:11;;;;;;;43.28;22.98;;;;;;;7.17;38.36;95194.78;4955215;28;20166;-80
2022/02/04 12:41:45;;;;;;;;;;;;;;;7.03;38.62;95196.59;4972034;28;20039;-81
2022/02/04 12:44:15;;;;;;;48.10;22.63;;;;;;;7.19;38.63;95180.66;4969928;28;20380;-81
2022/02/04 12:46:43;;;;;;;47.08;22.48;;;;;;;7.28;38.21;95177.84;4954769;28;20041;-79
2022/02/04 12:49:13;;;;;;;46.92;24.67;;;;;;;7.15;39.17;95194.97;4956725;28;20050;-79
2022/02/04 12:54:46;;;;;;;41.65;22.10;;;;;;;7.29;38.24;95202.72;4971921;28;20462;-81
2022/02/04 13:10:25;;;;;;;43.33;24.55;;;;;;;6.96;39.30;95177.69;4975986;28;20027;-80
2022/02/04 13:12:55;;;;;;;49.63;24.88;;;;;;;7.10;39.20;95168.91;4960884;28;20119;-80
2022/02/04 13:15:21;;;;;;;52.40;25.40;;;;;;;7.14;38.66;95174.47;4971183;28;20046;-80
2022/02/04 13:17:46;;;;;;;42.90;23.30;;;;;;;7.25;38.48;95170.50;4954361;28;20121;-79
2022/02/04 13:20:12;;;;;;;53.30;25.70;;;;;;;7.27;38.76;95166.69;4970564;28;20046;-79
2022/02/04 13:22:38;;;;;;;51.70;24.48;;;;;;;7.32;39.22;95160.91;4974273;28;20039;-80
2022/02/04 13:25:11;;;;;;;50.55;26.35;;;;;;;7.33;38.63;95150.38;4975190;28;20106;-79
2022/02/04 13:27:36;;;;;;;46.70;24.95;;;;;;;7.39;38.12;95141.81;4974975;28;20037;-79
2022/02/04 13:30:22;;;;;;;48.20;25.70;;;;;;;7.46;38.30;95147.75;4957713;28;20098;-80
2022/02/04 13:32:47;;;;;;;49.03;25.52;;;;;;;7.57;38.08;95143.72;4960105;28;20035;-79
2022/02/04 13:35:26;;;;;;;55.35;26.30;;;;;;;7.65;37.97;95140.94;4975874;28;20031;-80
2022/02/04 13:37:54;;;;;;;48.40;25.10;;;;;;;7.56;37.89;95131.78;4987878;23;20035;-80
2022/02/04 13:40:29;;;;;;;50.17;25.38;;;;;;;7.49;38.34;95131.03;4977417;28;20039;-81
2022/02/04 13:43:03;;;;;;;45.90;25.40;;;;;;;7.49;37.90;95142.19;4960948;28;20041;-81
2022/02/04 13:45:44;;;;;;;45.67;26.63;;;;;;;7.37;38.45;95148.97;4937454;28;20271;-81
2022/02/04 13:48:21;;;;;;;65.35;27.85;;;;;;;7.27;38.51;95134.88;4976320;28;20277;-81
2022/02/04 13:51:08;;;;;;;52.42;28.25;;;;;;;7.09;39.26;95140.69;4952864;28;20559;-81
2022/02/04 13:53:39;;;;;;;37.83;19.83;;;;;;;6.92;38.86;95135.13;4961044;28;20047;-81
2022/02/04 13:56:29;;;;;;;42.07;21.30;;;;;;;6.88;39.07;95147.66;4975705;28;20066;-80
2022/02/04 13:59:14;;;;;;;32.65;19.95;;;;;;;6.79;39.40;95138.50;4962550;28;20041;-80
2022/02/04 14:01:46;;;;;;;42.75;18.50;;;;;;;6.74;39.10;95142.69;4945248;28;20027;-80
2022/02/04 14:04:11;;;;;;;46.78;19.70;;;;;;;6.67;39.27;95137.56;4959615;28;20406;-80
2022/02/04 14:06:38;;;;;;;44.40;20.00;;;;;;;6.72;39.01;95142.09;4959330;28;20061;-80
2022/02/04 14:09:15;;;;;;;35.60;19.00;;;;;;;6.74;38.71;95153.03;4943319;28;20498;-80
2022/02/04 14:11:42;;;;;;;38.08;19.65;;;;;;;6.68;38.98;95153.84;4943950;28;20035;-80
2022/02/04 14:14:27;;;;;;;37.58;19.90;;;;;;;6.42;38.94;95155.41;4959161;28;20121;-80
2022/02/04 14:16:54;;;;;;;45.42;22.85;;;;;;;6.41;39.55;95158.19;4941072;28;20035;-79
2022/02/04 14:19:20;;;;;;;45.05;20.38;;;;;;;6.36;38.62;95160.56;4976594;28;20041;-80
2022/02/04 14:21:45;;;;;;;35.83;19.15;;;;;;;6.24;39.56;95163.72;4959380;28;20062;-79
2022/02/04 14:24:12;;;;;;;38.65;20.25;;;;;;;6.34;39.53;95150.41;4959114;28;20027;-79
2022/02/04 14:26:43;;;;;;;49.28;19.23;;;;;;;6.41;39.60;95148.66;4959434;28;20045;-79
2022/02/04 14:29:15;;;;;;;32.05;17.17;;;;;;;6.41;38.81;95148.66;4966732;28;20043;-81
2022/02/04 15:03:34;;;;;;;35.92;19.38;;;;;;;6.41;39.21;95132.38;4958924;28;20038;-79
2022/02/04 15:06:13;;;;;;;37.80;18.92;;;;;;;6.44;39.36;95130.16;4958894;28;20054;-79
2022/02/04 15:08:39;;;;;;;39.03;17.80;;;;;;;6.40;39.50;95134.16;4960198;28;20039;-74
2022/02/04 15:11:12;;;;;;;40.25;18.75;;;;;;;6.38;39.41;95130.97;4969329;28;20034;-78
2022/02/04 15:13:39;;;;;;;37.55;18.10;;;;;;;6.42;39.78;95142.50;4953753;28;20098;-78
2022/02/04 15:16:07;;;;;;;48.63;22.40;;;;;;;6.32;40.83;95137.69;4967266;28;20046;-78
2022/02/04 15:18:34;;;;;;;40.20;23.52;;;;;;;6.33;40.83;95130.75;4938456;28;20034;-78
2022/02/04 15:21:01;;;;;;;45.85;25.55;;;;;;;6.24;40.82;95134.53;4937262;28;20066;-78
2022/02/04 15:23:26;;;;;;;56.90;27.05;;;;;;;6.21;41.59;95127.19;4965591;28;20384;-78
2022/02/04 15:25:55;;;;;;;60.25;28.50;;;;;;;6.19;41.62;95122.22;4954873;28;20046;-78
2022/02/04 15:30:57;;;;;;;61.22;27.85;;;;;;;6.10;42.23;95120.00;4955243;28;20053;-77
2022/02/04 15:33:28;;;;;;;63.38;29.40;;;;;;;6.05;42.73;95122.38;4970516;28;20696;-77
2022/02/04 15:35:53;;;;;;;62.97;28.02;;;;;;;6.04;42.09;95129.34;4935971;28;20038;-77
2022/02/04 15:38:19;;;;;;;54.60;28.27;;;;;;;6.00;42.98;95125.53;4953026;28;20399;-77
2022/02/04 15:40:46;;;;;;;55.38;27.05;;;;;;;5.91;42.35;95129.31;4953944;28;20038;-75
2022/02/04 15:43:13;;;;;;;60.13;26.58;;;;;;;5.91;42.38;95127.50;4953532;28;20038;-75
2022/02/04 15:46:04;;;;;;;59.45;26.23;;;;;;;5.87;43.19;95120.34;4952429;28;20050;-76
2022/02/04 15:48:40;;;;;;;47.25;27.02;;;;;;;5.83;42.94;95125.06;4954832;28;20045;-75
2022/02/04 15:51:35;;;;;;;58.28;28.17;;;;;;;5.78;42.72;95119.69;4954817;28;20027;-76
2022/02/04 15:54:20;;;;;;;71.07;26.83;;;;;;;5.74;43.32;95115.94;4943405;28;20070;-76
2022/02/04 15:59:43;;;;;;;50.42;25.95;;;;;;;5.70;43.76;95122.47;4928079;28;20034;-77
2022/02/04 16:05:04;;;;;;;74.25;30.98;;;;;;;5.67;44.41;95121.03;4953046;28;20055;-76
2022/02/04 16:07:30;;;;;;;56.50;29.95;;;;;;;5.54;45.01;95121.03;4968334;28;20525;-76
2022/02/04 16:10:03;;;;;;;53.90;24.40;;;;;;;5.49;44.47;95120.00;4935366;28;20050;-76
2022/02/04 16:12:37;;;;;;;53.42;24.02;;;;;;;5.47;44.78;95114.22;4969222;28;20066;-76
2022/02/04 16:15:30;;;;;;;50.80;23.20;;;;;;;5.41;45.28;95121.75;4938049;28;20545;-76
2022/02/04 16:17:58;;;;;;;45.22;23.88;;;;;;;5.39;44.94;95128.91;4968296;28;20051;-76
2022/02/04 16:20:49;;;;;;;46.85;22.13;;;;;;;5.39;45.08;95130.69;4967971;28;20066;-76
2022/02/04 16:23:14;;;;;;;44.80;22.85;;;;;;;5.25;45.59;95127.22;4970040;28;20392;-76
2022/02/04 16:30:50;;;;;;;53.47;21.73;;;;;;;5.32;45.12;95130.63;4940683;28;20077;-76
2022/02/04 16:33:16;;;;;;;50.75;21.08;;;;;;;5.32;45.03;95128.03;4969553;28;20031;-77
2022/02/04 16:35:41;;;;;;;45.42;21.42;;;;;;;5.25;44.65;95132.38;4953005;28;20406;-75
2022/02/04 16:38:09;;;;;;;50.08;27.05;;;;;;;5.26;45.53;95136.56;4953088;28;20499;-75
2022/02/04 16:40:35;;;;;;;43.40;23.77;;;;;;;5.29;44.54;95128.44;4967388;28;20085;-77
2022/02/04 16:43:01;;;;;;;45.33;23.92;;;;;;;5.21;44.60;95135.53;4951558;28;20031;-76
2022/02/04 16:45:27;;;;;;;53.67;24.05;;;;;;;5.28;44.61;95126.84;4952038;28;20515;-77
2022/02/04 16:47:52;;;;;;;41.38;20.55;;;;;;;5.20;45.24;95119.25;4952537;28;20177;-77
2022/02/04 16:50:21;;;;;;;45.30;20.90;;;;;;;5.19;44.45;95122.81;4952785;28;20039;-77
2022/02/04 16:52:51;;;;;;;49.58;20.60;;;;;;;5.21;44.77;95118.28;4953017;28;20035;-77
2022/02/04 16:55:27;;;;;;;44.55;24.92;;;;;;;5.16;44.92;95122.41;4969035;28;20089;-77
2022/02/04 16:57:54;;;;;;;45.63;21.50;;;;;;;5.19;44.44;95125.41;4936158;28;20061;-76
2022/02/04 17:00:21;;;;;;;53.65;24.88;;;;;;;5.14;45.01;95130.34;4970140;28;20051;-76
2022/02/04 17:02:52;;;;;;;53.90;25.70;;;;;;;5.21;45.04;95126.03;4969220;28;20042;-77
2022/02/04 17:05:19;;;;;;;56.72;26.33;;;;;;;5.24;45.25;95125.66;4969436;28;20043;-76
2022/02/04 17:07:52;;;;;;;46.00;22.88;;;;;;;5.22;44.50;95126.81;4968835;28;20043;-76
2022/02/04 17:10:26;;;;;;;111.45;57.08;;;;;;;5.19;46.08;95133.13;4953322;28;20042;-75
2022/02/04 17:12:58;;;;;;;128.57;58.65;;;;;;;5.20;46.03;95127.00;4973653;28;20035;-75
2022/02/04 17:15:24;;;;;;;232.73;107.35;;;;;;;5.18;46.98;95126.38;4957262;28;20066;-76
2022/02/04 17:17:50;;;;;;;323.35;166.75;;;;;;;5.17;46.86;95129.94;4956178;28;20061;-75
2022/02/04 17:20:16;;;;;;;416.38;229.18;;;;;;;5.06;47.56;95133.88;4954397;28;20049;-75
2022/02/04 17:22:42;;;;;;;438.58;256.30;;;;;;;5.02;49.17;95131.84;4973249;28;20035;-75
2022/02/04 17:25:10;;;;;;;467.65;285.15;;;;;;;5.02;48.99;95139.56;4973373;28;20143;-75
2022/02/04 17:27:42;;;;;;;528.25;315.25;;;;;;;4.94;48.86;95143.09;4956906;28;20038;-76
2022/02/04 17:30:10;;;;;;;518.10;354.70;;;;;;;4.90;49.70;95141.09;4948436;28;20038;-77
2022/02/04 17:32:36;;;;;;;437.20;269.45;;;;;;;4.83;48.88;95143.63;4956198;28;20047;-76
2022/02/04 17:35:02;;;;;;;417.52;243.77;;;;;;;4.72;49.26;95147.53;4955929;28;20039;-76
2022/02/04 17:37:27;;;;;;;405.48;240.32;;;;;;;4.58;50.06;95145.84;4957237;28;20038;-76
2022/02/04 17:39:55;;;;;;;392.05;218.98;;;;;;;4.55;49.73;95141.03;4955802;28;20541;-76
2022/02/04 17:42:24;;;;;;;331.05;182.48;;;;;;;4.42;50.79;95146.09;4939953;28;20481;-77
2022/02/04 17:44:53;;;;;;;279.52;151.68;;;;;;;4.28;50.21;95150.31;4972739;28;20117;-77
2022/02/04 17:47:21;;;;;;;223.40;118.18;;;;;;;4.20;50.00;95147.84;4955906;28;20130;-76
2022/02/04 17:49:57;;;;;;;241.95;129.07;;;;;;;4.21;51.54;95145.09;4955985;28;20054;-76
2022/02/04 17:55:09;;;;;;;121.22;60.40;;;;;;;4.14;50.02;95154.53;4956409;28;20118;-76
2022/02/04 18:00:29;;;;;;;167.80;74.85;;;;;;;3.92;49.76;95150.38;4954474;28;20134;-76
2022/02/04 18:08:04;;;;;;;147.50;70.10;;;;;;;3.60;51.45;95151.59;4962181;28;20031;-84
2022/02/04 18:10:29;;;;;;;155.05;73.65;;;;;;;3.57;51.36;95157.06;4939556;28;20034;-77